Time;durP1;ratioP1;P1;durP2;ratioP2;P2;SDS_P1;SDS_P2;PMS_P1;PMS_P2;Temp;Humidity;BMP_temperature;BMP_pressure;BME280_temperature;BME280_humidity;BME280_pressure;Samples;Min_cycle;Max_cycle;Signal;HPM_P1;HPM_P2
2022/08/22 00:00:14;;;;;;;13.88;7.38;;;13.60;99.90;;;;;;5048098;28;20029;-68
2022/08/22 00:03:12;;;;;;;19.40;8.05;;;13.60;99.90;;;;;;5046299;28;20055;-68
2022/08/22 00:06:16;;;;;;;21.42;9.07;;;13.60;99.90;;;;;;5047935;28;20043;-68
2022/08/22 00:09:19;;;;;;;15.95;7.93;;;13.50;99.90;;;;;;5047236;28;20037;-68
2022/08/22 00:11:48;;;;;;;16.45;8.05;;;13.50;99.90;;;;;;5057288;28;20448;-68
2022/08/22 00:14:18;;;;;;;15.60;8.27;;;13.50;99.90;;;;;;5048771;28;20039;-69
2022/08/22 00:17:26;;;;;;;14.20;7.70;;;13.50;99.90;;;;;;5046375;28;20103;-69
2022/08/22 00:20:21;;;;;;;16.15;7.53;;;13.50;99.90;;;;;;5049035;28;20033;-69
2022/08/22 00:23:17;;;;;;;16.65;8.02;;;13.40;99.90;;;;;;5055787;28;20037;-69
2022/08/22 00:25:48;;;;;;;15.05;7.40;;;13.40;99.90;;;;;;5046421;28;20136;-68
2022/08/22 00:28:39;;;;;;;16.30;7.80;;;13.40;99.90;;;;;;5046958;28;20116;-68
2022/08/22 00:31:30;;;;;;;10.77;6.38;;;13.40;99.90;;;;;;5048926;28;20435;-67
2022/08/22 00:34:23;;;;;;;9.68;5.43;;;13.40;99.90;;;;;;5047839;28;20020;-68
2022/08/22 00:37:05;;;;;;;10.05;5.35;;;13.30;99.90;;;;;;5055649;28;20029;-68
2022/08/22 00:39:46;;;;;;;14.82;5.80;;;13.30;99.90;;;;;;5040397;28;20479;-67
2022/08/22 00:42:43;;;;;;;9.65;5.15;;;13.20;99.90;;;;;;5049878;28;20043;-69
2022/08/22 00:45:32;;;;;;;9.73;5.30;;;13.10;99.90;;;;;;5048052;28;20151;-68
2022/08/22 00:48:20;;;;;;;11.85;5.53;;;13.00;99.90;;;;;;5048426;28;20032;-68
2022/08/22 00:51:10;;;;;;;9.95;5.07;;;13.00;99.90;;;;;;5059169;28;20534;-68
2022/08/22 00:53:45;;;;;;;9.50;5.65;;;12.90;99.90;;;;;;5046592;28;20344;-68
2022/08/22 00:56:42;;;;;;;10.20;5.72;;;12.90;99.90;;;;;;5048332;28;20462;-67
2022/08/22 00:59:26;;;;;;;10.35;5.93;;;12.80;99.90;;;;;;5048009;28;20711;-68
2022/08/22 01:02:25;;;;;;;11.60;5.50;;;12.80;99.90;;;;;;5051249;28;20463;-68
2022/08/22 01:05:16;;;;;;;9.07;5.10;;;12.80;99.90;;;;;;5042038;28;20683;-68
2022/08/22 01:07:51;;;;;;;11.95;5.78;;;12.80;99.90;;;;;;5047906;28;20029;-68
2022/08/22 01:10:53;;;;;;;9.82;5.82;;;12.90;99.90;;;;;;5053887;28;20051;-68
2022/08/22 01:13:40;;;;;;;11.55;6.07;;;12.90;99.90;;;;;;5035272;28;20060;-68
2022/08/22 01:16:15;;;;;;;8.93;5.85;;;13.00;99.90;;;;;;5047558;28;20031;-68
2022/08/22 01:18:59;;;;;;;12.40;6.93;;;13.00;99.90;;;;;;5032969;28;20043;-68
2022/08/22 01:21:36;;;;;;;11.00;7.00;;;13.00;99.90;;;;;;5051948;28;20094;-68
2022/08/22 01:24:32;;;;;;;11.20;6.45;;;13.00;99.90;;;;;;5047690;28;20032;-68
2022/08/22 01:27:04;;;;;;;15.73;7.75;;;13.00;99.90;;;;;;5038551;28;20033;-68
2022/08/22 01:29:29;;;;;;;17.02;8.10;;;13.10;99.90;;;;;;5056830;28;20044;-68
2022/08/22 01:32:04;;;;;;;16.98;7.95;;;13.10;99.90;;;;;;5052686;28;20048;-67
2022/08/22 01:34:48;;;;;;;13.85;7.38;;;13.00;99.90;;;;;;5054640;28;20444;-70
2022/08/22 01:37:13;;;;;;;14.50;7.35;;;13.00;99.90;;;;;;5056605;28;20037;-69
2022/08/22 01:40:03;;;;;;;13.82;7.53;;;13.00;99.90;;;;;;5046426;28;20482;-67
2022/08/22 01:42:56;;;;;;;17.13;8.68;;;12.90;99.90;;;;;;5048527;28;20127;-68
2022/08/22 01:45:40;;;;;;;13.20;7.93;;;12.80;99.90;;;;;;5028981;28;20484;-69
2022/08/22 01:48:11;;;;;;;16.48;8.20;;;12.80;99.90;;;;;;5045277;28;20036;-67
2022/08/22 01:50:55;;;;;;;15.75;7.60;;;12.70;99.90;;;;;;5046201;28;20072;-68
2022/08/22 01:53:36;;;;;;;13.75;7.07;;;12.70;99.90;;;;;;5043780;28;20059;-68
2022/08/22 01:56:06;;;;;;;13.63;7.07;;;12.70;99.90;;;;;;5047662;28;20031;-68
2022/08/22 01:58:36;;;;;;;10.57;6.63;;;12.70;99.90;;;;;;5046875;28;20037;-68
2022/08/22 02:01:07;;;;;;;11.00;6.65;;;12.70;99.90;;;;;;5047320;28;20079;-68
2022/08/22 02:03:55;;;;;;;12.13;6.50;;;12.60;99.90;;;;;;5046935;28;20440;-69
2022/08/22 02:06:40;;;;;;;14.95;6.45;;;12.60;99.90;;;;;;5046702;28;20508;-68
2022/08/22 02:09:13;;;;;;;12.23;6.43;;;12.60;99.90;;;;;;5045885;28;20103;-68
2022/08/22 02:11:47;;;;;;;14.15;5.38;;;12.70;99.90;;;;;;5052270;28;20133;-68
2022/08/22 02:14:17;;;;;;;10.65;5.80;;;12.70;99.90;;;;;;5047040;28;20029;-68
2022/08/22 02:16:49;;;;;;;9.30;5.60;;;12.70;99.90;;;;;;5047187;28;20102;-68
2022/08/22 02:19:14;;;;;;;11.93;5.75;;;12.70;99.90;;;;;;5044514;28;20090;-67
2022/08/22 02:22:22;;;;;;;10.50;5.10;;;12.60;99.90;;;;;;5045025;28;20045;-67
2022/08/22 02:25:21;;;;;;;7.97;4.95;;;12.60;99.90;;;;;;5015250;28;20046;-68
2022/08/22 02:28:07;;;;;;;10.90;4.80;;;12.50;99.90;;;;;;5013974;28;20678;-69
2022/08/22 02:31:00;;;;;;;8.25;4.95;;;12.60;99.90;;;;;;5007076;28;20411;-69
2022/08/22 02:33:45;;;;;;;9.73;5.15;;;12.50;99.90;;;;;;4999356;28;20054;-69
2022/08/22 02:36:13;;;;;;;7.97;4.40;;;12.50;99.90;;;;;;5011629;28;20081;-69
2022/08/22 02:38:50;;;;;;;8.20;5.18;;;12.60;99.90;;;;;;4996478;28;20447;-69
2022/08/22 02:41:40;;;;;;;8.27;4.70;;;12.50;99.90;;;;;;4998821;28;20034;-66
2022/08/22 02:44:24;;;;;;;10.27;5.55;;;12.40;99.90;;;;;;5028317;28;20043;-68
2022/08/22 02:47:02;;;;;;;11.73;5.65;;;12.40;99.90;;;;;;5018319;28;20034;-67
2022/08/22 02:49:57;;;;;;;9.45;5.20;;;12.30;99.90;;;;;;4992797;28;20049;-68
2022/08/22 02:52:52;;;;;;;8.10;4.63;;;12.20;99.90;;;;;;5023469;28;20602;-69
2022/08/22 02:55:33;;;;;;;8.82;4.90;;;12.10;99.90;;;;;;4992380;28;20041;-67
2022/08/22 02:58:09;;;;;;;8.15;4.30;;;12.10;99.90;;;;;;5019863;28;20503;-68
2022/08/22 03:01:12;;;;;;;8.18;3.95;;;12.10;99.90;;;;;;5013956;28;20038;-69
2022/08/22 03:03:44;;;;;;;7.72;4.55;;;12.00;99.90;;;;;;5049007;28;20163;-69
2022/08/22 03:06:16;;;;;;;10.88;5.05;;;12.10;99.90;;;;;;5049925;28;20044;-69
2022/08/22 03:09:04;;;;;;;9.57;5.38;;;12.10;99.90;;;;;;5049332;28;20040;-69
2022/08/22 03:11:34;;;;;;;10.48;5.80;;;12.10;99.90;;;;;;5050221;28;20489;-68
2022/08/22 03:14:19;;;;;;;7.65;5.38;;;12.10;99.90;;;;;;5050262;28;20040;-68
2022/08/22 03:17:02;;;;;;;8.18;5.60;;;12.10;99.90;;;;;;5036437;28;20475;-68
2022/08/22 03:19:47;;;;;;;7.68;5.78;;;12.10;99.90;;;;;;5044335;28;20040;-68
2022/08/22 03:22:39;;;;;;;7.97;5.82;;;12.10;99.90;;;;;;5049513;28;20098;-69
2022/08/22 03:25:19;;;;;;;9.07;5.45;;;12.10;99.90;;;;;;5049533;28;20029;-68
2022/08/22 03:27:55;;;;;;;7.55;5.60;;;12.00;99.90;;;;;;5054365;28;20039;-68
2022/08/22 03:30:38;;;;;;;8.25;5.47;;;12.00;99.90;;;;;;5047920;28;20033;-68
2022/08/22 03:33:16;;;;;;;7.10;5.38;;;11.90;99.90;;;;;;5049609;28;20678;-67
2022/08/22 03:35:45;;;;;;;8.20;6.03;;;11.90;99.90;;;;;;5048284;28;20037;-68
2022/08/22 03:38:27;;;;;;;7.10;5.80;;;11.90;99.90;;;;;;5048318;28;20064;-68
2022/08/22 03:41:16;;;;;;;7.35;5.68;;;11.90;99.90;;;;;;5047965;28;20037;-68
2022/08/22 03:43:59;;;;;;;7.67;5.73;;;11.90;99.90;;;;;;5044101;28;20044;-68
2022/08/22 03:46:40;;;;;;;9.75;5.60;;;11.90;99.90;;;;;;5055020;28;20497;-68
2022/08/22 03:49:42;;;;;;;12.68;6.20;;;11.90;99.90;;;;;;5040380;28;20055;-68
2022/08/22 03:53:06;;;;;;;14.57;7.25;;;12.00;99.90;;;;;;5049044;28;20144;-68
2022/08/22 03:55:41;;;;;;;13.88;7.50;;;12.00;99.90;;;;;;5051637;28;20066;-68
2022/08/22 03:58:38;;;;;;;16.13;7.40;;;12.10;99.90;;;;;;5064051;28;20396;-68
2022/08/22 04:01:23;;;;;;;17.25;7.25;;;12.10;99.90;;;;;;5033296;28;20029;-68
2022/08/22 04:04:06;;;;;;;16.67;7.40;;;12.10;99.90;;;;;;5048466;28;20040;-68
2022/08/22 04:06:57;;;;;;;19.13;7.18;;;12.10;99.90;;;;;;5048752;28;20036;-67
2022/08/22 04:09:51;;;;;;;24.08;7.65;;;12.10;99.90;;;;;;5061259;28;20081;-68
2022/08/22 04:12:40;;;;;;;21.50;8.00;;;12.10;99.90;;;;;;5048159;28;20044;-68
2022/08/22 04:15:23;;;;;;;16.75;7.22;;;12.00;99.90;;;;;;5043129;28;20057;-69
2022/08/22 04:18:30;;;;;;;13.55;6.90;;;12.00;99.90;;;;;;5047503;28;20032;-68
2022/08/22 04:21:01;;;;;;;16.40;7.03;;;12.00;99.90;;;;;;5007799;28;20041;-67
2022/08/22 04:24:07;;;;;;;16.00;7.35;;;11.90;99.90;;;;;;5021941;28;20055;-68
2022/08/22 04:27:15;;;;;;;16.50;7.35;;;11.90;99.90;;;;;;5025472;28;20539;-68
2022/08/22 04:30:05;;;;;;;13.05;6.28;;;11.90;99.90;;;;;;5001631;28;20046;-68
2022/08/22 04:32:42;;;;;;;15.18;6.20;;;11.90;99.90;;;;;;5017658;28;20077;-69
2022/08/22 04:35:15;;;;;;;10.38;5.95;;;11.90;99.90;;;;;;4991841;28;20046;-68
2022/08/22 04:37:50;;;;;;;12.35;6.03;;;11.90;99.90;;;;;;5019436;28;20537;-67
2022/08/22 04:40:42;;;;;;;10.82;5.43;;;11.80;99.90;;;;;;5023799;28;20519;-68
2022/08/22 04:43:28;;;;;;;12.00;6.35;;;11.80;99.90;;;;;;5017607;28;20069;-69
2022/08/22 04:46:06;;;;;;;11.77;5.28;;;11.80;99.90;;;;;;5021970;28;20398;-68
2022/08/22 04:49:01;;;;;;;11.30;5.65;;;11.70;99.90;;;;;;5024373;28;20038;-68
2022/08/22 04:51:39;;;;;;;11.50;5.95;;;11.70;99.90;;;;;;5021885;28;20037;-68
2022/08/22 04:54:39;;;;;;;16.50;6.60;;;11.50;99.90;;;;;;5011816;28;20030;-70
2022/08/22 04:57:21;;;;;;;13.13;6.43;;;11.50;99.90;;;;;;5016232;28;20049;-68
2022/08/22 04:59:48;;;;;;;19.27;6.82;;;11.50;99.90;;;;;;5047963;28;20032;-69
2022/08/22 05:02:21;;;;;;;16.60;6.30;;;11.50;99.90;;;;;;5047737;28;20106;-68
2022/08/22 05:04:57;;;;;;;11.98;6.03;;;11.50;99.90;;;;;;5047593;28;20063;-67
2022/08/22 05:07:53;;;;;;;10.70;6.15;;;11.40;99.90;;;;;;5044918;28;20025;-69
2022/08/22 05:10:24;;;;;;;11.40;5.90;;;11.40;99.90;;;;;;5048085;28;20102;-68
2022/08/22 05:12:59;;;;;;;10.18;5.63;;;11.40;99.90;;;;;;5046079;28;20454;-68
2022/08/22 05:15:35;;;;;;;15.38;7.20;;;11.40;99.90;;;;;;5047743;28;20116;-68
2022/08/22 05:18:26;;;;;;;19.00;7.80;;;11.40;99.90;;;;;;5047747;28;20094;-68
2022/08/22 05:20:53;;;;;;;17.92;7.95;;;11.40;99.90;;;;;;5045913;28;20056;-68
2022/08/22 05:23:36;;;;;;;14.02;6.93;;;11.50;99.90;;;;;;5053195;28;20454;-67
2022/08/22 05:26:05;;;;;;;14.95;8.13;;;11.50;99.90;;;;;;5054823;28;20042;-68
2022/08/22 05:28:42;;;;;;;18.48;8.70;;;11.50;99.90;;;;;;5061120;28;20036;-67
2022/08/22 05:31:15;;;;;;;22.30;9.48;;;11.60;99.90;;;;;;5066393;28;20039;-67
2022/08/22 05:34:02;;;;;;;18.65;9.73;;;11.60;99.90;;;;;;5051661;28;20166;-68
2022/08/22 05:36:40;;;;;;;16.02;8.63;;;11.60;99.90;;;;;;5036004;28;20033;-67
2022/08/22 05:39:23;;;;;;;22.17;8.93;;;11.70;99.90;;;;;;5063060;28;20029;-69
2022/08/22 05:41:52;;;;;;;15.43;8.50;;;11.70;99.90;;;;;;5044904;28;20044;-67
2022/08/22 05:44:29;;;;;;;15.82;9.65;;;11.70;99.90;;;;;;5046801;28;20029;-69
2022/08/22 05:47:20;;;;;;;12.98;7.88;;;11.70;99.90;;;;;;5046226;28;20040;-68
2022/08/22 05:50:00;;;;;;;15.57;7.97;;;11.70;99.90;;;;;;5057855;28;20422;-68
2022/08/22 05:52:37;;;;;;;15.10;8.05;;;11.80;99.90;;;;;;5048160;28;20032;-68
2022/08/22 05:55:27;;;;;;;15.43;8.05;;;11.80;99.90;;;;;;5047768;28;20037;-70
2022/08/22 05:58:34;;;;;;;12.57;7.95;;;11.90;99.90;;;;;;5031994;28;20036;-68
2022/08/22 06:01:21;;;;;;;14.57;8.60;;;11.90;99.90;;;;;;5031901;28;20068;-68
2022/08/22 06:04:19;;;;;;;11.45;7.90;;;11.90;99.90;;;;;;5052579;28;20455;-67
2022/08/22 06:07:00;;;;;;;14.60;8.70;;;12.00;99.90;;;;;;5047996;28;20061;-68
2022/08/22 06:09:46;;;;;;;12.60;8.70;;;12.00;99.90;;;;;;5045628;28;20041;-68
2022/08/22 06:12:15;;;;;;;12.98;8.45;;;12.00;99.90;;;;;;5053602;28;20082;-68
2022/08/22 06:15:01;;;;;;;12.23;8.02;;;12.10;99.90;;;;;;5049673;28;20486;-67
2022/08/22 06:17:35;;;;;;;12.40;8.65;;;12.10;99.90;;;;;;5050589;28;20063;-68
2022/08/22 06:20:04;;;;;;;14.25;8.45;;;12.20;99.90;;;;;;5056350;28;20028;-68
2022/08/22 06:22:35;;;;;;;14.23;8.32;;;12.20;99.90;;;;;;5049141;28;20032;-68
2022/08/22 06:25:11;;;;;;;14.38;7.90;;;12.30;99.90;;;;;;5048682;28;20520;-68
2022/08/22 06:27:38;;;;;;;11.15;7.47;;;12.30;99.90;;;;;;5052395;28;20029;-68
2022/08/22 06:30:06;;;;;;;10.82;7.22;;;12.40;99.90;;;;;;5054980;28;20064;-68
2022/08/22 06:32:41;;;;;;;10.02;7.05;;;12.40;99.90;;;;;;5051713;28;20091;-68
2022/08/22 06:35:16;;;;;;;8.88;6.57;;;12.50;99.90;;;;;;5043483;28;20037;-68
2022/08/22 06:37:45;;;;;;;8.25;6.47;;;12.60;99.90;;;;;;5048430;28;20759;-67
2022/08/22 06:40:14;;;;;;;10.80;7.15;;;12.70;99.90;;;;;;5048063;28;20060;-68
2022/08/22 06:42:43;;;;;;;10.55;7.22;;;12.80;99.90;;;;;;5044728;28;20633;-69
2022/08/22 06:45:23;;;;;;;7.80;5.93;;;12.90;99.90;;;;;;5047947;28;20048;-68
2022/08/22 06:47:58;;;;;;;10.90;6.63;;;13.10;99.90;;;;;;5047860;28;20064;-68
2022/08/22 06:50:29;;;;;;;10.45;6.72;;;13.20;99.90;;;;;;5051545;28;20197;-69
2022/08/22 06:53:46;;;;;;;10.27;6.53;;;13.30;99.90;;;;;;5049758;28;20043;-68
2022/08/22 06:56:17;;;;;;;9.20;7.03;;;13.50;99.90;;;;;;5025246;28;20041;-68
2022/08/22 06:58:45;;;;;;;10.93;7.55;;;13.80;99.90;;;;;;5049545;28;20033;-69
2022/08/22 07:01:15;;;;;;;9.23;6.38;;;14.10;99.90;;;;;;5050255;28;20032;-68
2022/08/22 07:03:48;;;;;;;7.68;5.25;;;14.30;99.90;;;;;;5045193;28;20472;-68
2022/08/22 07:06:17;;;;;;;9.18;5.88;;;14.50;99.90;;;;;;5047909;28;20554;-68
2022/08/22 07:08:44;;;;;;;9.15;6.38;;;14.80;99.90;;;;;;5050419;28;20024;-68
2022/08/22 07:11:20;;;;;;;9.52;6.60;;;14.90;99.90;;;;;;5050559;28;20059;-69
2022/08/22 07:13:59;;;;;;;8.18;5.82;;;15.10;99.90;;;;;;5048983;28;20025;-68
2022/08/22 07:16:32;;;;;;;10.23;6.10;;;15.20;99.90;;;;;;5046892;28;20028;-69
2022/08/22 07:18:59;;;;;;;9.60;5.63;;;15.30;99.90;;;;;;5062373;28;20318;-70
2022/08/22 07:21:41;;;;;;;9.52;6.15;;;15.40;99.90;;;;;;5056305;28;20365;-68
2022/08/22 07:24:08;;;;;;;11.23;7.32;;;15.50;99.90;;;;;;5037003;28;20495;-68
2022/08/22 07:26:34;;;;;;;10.20;6.85;;;15.70;99.90;;;;;;5049249;28;20039;-68
2022/08/22 07:29:26;;;;;;;9.05;5.32;;;15.90;99.90;;;;;;5044467;28;20041;-70
2022/08/22 07:31:52;;;;;;;8.95;5.80;;;16.10;99.90;;;;;;5046772;28;20471;-69
2022/08/22 07:34:39;;;;;;;9.68;5.13;;;16.40;99.90;;;;;;5044384;28;20033;-69
2022/08/22 07:37:23;;;;;;;8.63;4.80;;;16.60;99.90;;;;;;5047872;28;20021;-68
2022/08/22 07:40:17;;;;;;;9.15;4.72;;;16.80;99.90;;;;;;5046804;28;20037;-69
2022/08/22 07:42:51;;;;;;;9.15;4.75;;;17.10;99.90;;;;;;5044714;28;20063;-69
2022/08/22 07:45:48;;;;;;;11.80;4.78;;;17.30;99.90;;;;;;5045652;28;20036;-69
2022/08/22 07:48:29;;;;;;;8.55;4.25;;;17.50;99.90;;;;;;5034992;28;20762;-66
2022/08/22 07:51:08;;;;;;;10.40;3.47;;;17.70;99.90;;;;;;5041493;28;20041;-70
2022/08/22 07:53:42;;;;;;;;;;;17.90;99.90;;;;;;5051529;28;20041;-69
2022/08/22 07:56:34;;;;;;;8.98;3.55;;;18.00;99.90;;;;;;5048574;28;19962;-69
2022/08/22 07:59:13;;;;;;;8.05;3.10;;;18.10;99.90;;;;;;5049400;28;20041;-68
2022/08/22 08:01:44;;;;;;;9.63;3.50;;;18.20;99.90;;;;;;5049577;28;20060;-68
2022/08/22 08:04:15;;;;;;;8.32;3.10;;;18.40;99.90;;;;;;5044980;28;20494;-69
2022/08/22 08:06:41;;;;;;;10.48;3.20;;;18.50;99.90;;;;;;5047320;28;20033;-69
2022/08/22 08:09:13;;;;;;;7.82;2.80;;;18.80;99.90;;;;;;5050759;28;20032;-68
2022/08/22 08:11:42;;;;;;;7.35;2.20;;;19.00;99.90;;;;;;5052637;28;20082;-67
2022/08/22 08:14:12;;;;;;;11.40;2.60;;;19.30;99.90;;;;;;5048867;28;20032;-68
2022/08/22 08:17:01;;;;;;;10.23;2.65;;;19.50;99.90;;;;;;5038410;28;20040;-67
2022/08/22 08:19:29;;;;;;;14.02;2.70;;;19.70;99.90;;;;;;5042908;28;20725;-68
2022/08/22 08:21:57;;;;;;;11.07;2.20;;;19.90;99.90;;;;;;5052303;28;20429;-68
2022/08/22 08:24:31;;;;;;;12.40;3.30;;;20.10;99.90;;;;;;5055796;28;20078;-69
2022/08/22 08:29:54;;;;;;;12.75;3.13;;;20.60;99.90;;;;;;5044620;28;20036;-71
2022/08/22 08:32:26;;;;;;;11.48;2.65;;;20.70;99.90;;;;;;5050594;28;20489;-69
2022/08/22 08:34:52;;;;;;;11.35;2.50;;;20.60;99.90;;;;;;5048804;28;20107;-69
2022/08/22 08:37:32;;;;;;;12.10;2.72;;;20.50;99.90;;;;;;5056244;28;20032;-69
2022/08/22 08:39:59;;;;;;;13.13;2.85;;;20.30;99.90;;;;;;5066754;28;20058;-70
2022/08/22 08:46:09;;;;;;;8.77;2.38;;;20.00;99.90;;;;;;5059871;28;20048;-72
2022/08/22 08:48:43;;;;;;;7.72;1.85;;;20.00;99.90;;;;;;5046466;28;20037;-68
2022/08/22 08:51:42;;;;;;;9.00;2.28;;;20.30;99.90;;;;;;5040897;28;20029;-69
2022/08/22 08:55:06;;;;;;;9.45;1.77;;;20.40;99.90;;;;;;5054100;28;20470;-68
2022/08/22 08:58:03;;;;;;;9.25;1.73;;;20.50;99.90;;;;;;5024035;28;20041;-68
2022/08/22 09:00:56;;;;;;;12.55;1.90;;;20.60;99.90;;;;;;5020379;28;20597;-70
2022/08/22 09:03:36;;;;;;;12.93;2.95;;;20.70;99.90;;;;;;4998904;28;20133;-68
2022/08/22 09:06:29;;;;;;;9.05;2.17;;;20.70;99.90;;;;;;4994123;28;20084;-69
2022/08/22 09:09:28;;;;;;;12.05;2.15;;;20.60;99.90;;;;;;5019968;28;20511;-67
2022/08/22 09:12:06;;;;;;;8.20;1.90;;;20.60;99.90;;;;;;5011266;28;20169;-69
2022/08/22 09:14:44;;;;;;;6.38;1.77;;;20.60;99.90;;;;;;4988308;28;20520;-68
2022/08/22 09:17:31;;;;;;;12.77;2.47;;;20.70;99.90;;;;;;4993613;28;20026;-70
2022/08/22 09:20:14;;;;;;;10.48;2.13;;;20.70;99.90;;;;;;5021816;28;20030;-68
2022/08/22 09:22:57;;;;;;;10.35;2.13;;;20.80;99.90;;;;;;5034509;28;20084;-68
2022/08/22 09:25:32;;;;;;;10.60;2.00;;;21.10;99.90;;;;;;5020865;28;20136;-69
2022/08/22 09:28:31;;;;;;;11.07;2.20;;;21.30;99.90;;;;;;5018672;28;20180;-69
2022/08/22 09:31:15;;;;;;;7.72;1.60;;;21.40;99.90;;;;;;5029563;28;20041;-69
2022/08/22 09:33:51;;;;;;;7.63;1.90;;;21.40;99.90;;;;;;5045013;28;20033;-70
2022/08/22 09:36:28;;;;;;;11.88;2.15;;;21.50;99.90;;;;;;5046152;28;20116;-70
2022/08/22 09:39:04;;;;;;;12.50;1.90;;;21.40;99.90;;;;;;5052340;28;20128;-69
2022/08/22 09:41:51;;;;;;;7.00;1.85;;;21.30;99.90;;;;;;5061355;28;20033;-71
2022/08/22 09:44:32;;;;;;;11.77;1.88;;;21.20;99.90;;;;;;5052852;28;20094;-69
2022/08/22 09:47:28;;;;;;;8.02;2.15;;;21.10;99.90;;;;;;5069503;28;20365;-70
2022/08/22 09:50:06;;;;;;;9.02;2.03;;;21.10;99.90;;;;;;5045686;28;20179;-69
2022/08/22 09:52:41;;;;;;;8.18;1.90;;;21.10;99.90;;;;;;5049071;28;20072;-69
2022/08/22 09:55:18;;;;;;;7.25;1.60;;;21.00;99.90;;;;;;5049097;28;20036;-69
2022/08/22 09:57:54;;;;;;;6.95;1.60;;;21.10;99.90;;;;;;5049732;28;20032;-68
2022/08/22 10:00:24;;;;;;;8.85;1.80;;;21.10;99.90;;;;;;5052520;28;20094;-68
2022/08/22 10:03:10;;;;;;;8.27;2.05;;;21.20;99.90;;;;;;5047754;28;20135;-69
2022/08/22 10:05:47;;;;;;;9.25;1.80;;;21.20;99.90;;;;;;5048451;28;20120;-70
2022/08/22 10:08:25;;;;;;;10.65;2.40;;;21.30;99.90;;;;;;5049836;28;20033;-68
2022/08/22 10:11:07;;;;;;;10.82;2.00;;;21.30;99.90;;;;;;5049595;28;20144;-69
2022/08/22 10:13:42;;;;;;;9.55;2.03;;;21.40;99.90;;;;;;5049351;28;20048;-69
2022/08/22 10:16:38;;;;;;;10.40;2.00;;;21.40;99.90;;;;;;5049915;28;20025;-68
2022/08/22 10:19:23;;;;;;;7.72;1.88;;;21.40;99.90;;;;;;5048679;28;20074;-69
2022/08/22 10:22:16;;;;;;;7.53;1.92;;;21.60;98.40;;;;;;5047708;28;20040;-70
2022/08/22 10:24:50;;;;;;;6.38;1.60;;;21.70;97.80;;;;;;5064408;28;20043;-70
2022/08/22 10:27:24;;;;;;;6.80;1.60;;;21.70;98.00;;;;;;5052702;28;20025;-69
2022/08/22 10:30:05;;;;;;;6.53;1.60;;;21.80;97.10;;;;;;5057748;28;20037;-69
2022/08/22 10:32:53;;;;;;;6.78;1.35;;;21.80;97.50;;;;;;5054000;28;20028;-69
2022/08/22 10:35:25;;;;;;;7.10;1.55;;;21.90;98.40;;;;;;5052946;28;20552;-70
2022/08/22 10:38:02;;;;;;;7.53;1.52;;;21.90;98.50;;;;;;5055137;28;20025;-69
2022/08/22 10:40:38;;;;;;;5.45;1.25;;;22.00;97.40;;;;;;5049942;28;20037;-68
2022/08/22 10:43:13;;;;;;;6.68;1.45;;;22.10;99.10;;;;;;5063990;28;20519;-67
2022/08/22 10:45:51;;;;;;;8.00;1.73;;;22.30;98.20;;;;;;5049308;28;20044;-69
2022/08/22 10:48:27;;;;;;;8.88;1.73;;;22.50;98.60;;;;;;5047723;28;20067;-68
2022/08/22 10:51:03;;;;;;;8.15;1.60;;;22.80;98.00;;;;;;5046664;28;20029;-69
2022/08/22 10:53:37;;;;;;;8.07;1.40;;;22.90;98.40;;;;;;5050644;28;20482;-69
2022/08/22 10:56:15;;;;;;;5.85;1.48;;;23.00;97.50;;;;;;5048413;28;20764;-68
2022/08/22 10:59:01;;;;;;;17.88;2.25;;;23.00;98.50;;;;;;5035489;28;20033;-68
2022/08/22 11:01:36;;;;;;;8.13;2.60;;;23.00;98.50;;;;;;5044943;28;20041;-69
2022/08/22 11:04:20;;;;;;;7.47;2.20;;;22.90;98.50;;;;;;5043481;28;20052;-68
2022/08/22 11:06:59;;;;;;;8.55;2.88;;;22.50;99.00;;;;;;5050568;28;20029;-68
2022/08/22 11:09:43;;;;;;;7.65;2.53;;;22.50;99.80;;;;;;5049540;28;20831;-69
2022/08/22 11:12:45;;;;;;;7.75;3.20;;;22.60;99.90;;;;;;5051050;28;20103;-69
2022/08/22 11:15:34;;;;;;;9.85;3.00;;;22.80;99.70;;;;;;5048904;28;20495;-72
2022/08/22 11:18:15;;;;;;;;;;;23.00;99.90;;;;;;5050761;28;20401;-70
2022/08/22 11:21:18;;;;;;;8.38;2.60;;;23.20;98.40;;;;;;5050303;28;19991;-70
2022/08/22 11:24:25;;;;;;;7.93;3.13;;;23.30;98.10;;;;;;5028951;28;20738;-71
2022/08/22 11:26:58;;;;;;;7.07;2.30;;;23.20;98.10;;;;;;5022238;28;20034;-70
2022/08/22 11:29:41;;;;;;;8.95;2.88;;;23.20;98.80;;;;;;5027535;28;20041;-70
2022/08/22 11:32:13;;;;;;;8.02;2.67;;;23.10;98.30;;;;;;5010962;28;20033;-69
2022/08/22 11:34:58;;;;;;;9.73;2.40;;;22.90;98.90;;;;;;5027647;28;20484;-68
2022/08/22 11:37:36;;;;;;;8.65;2.45;;;22.60;99.30;;;;;;5027384;28;20076;-69
2022/08/22 11:40:05;;;;;;;10.23;2.50;;;22.50;99.80;;;;;;5010680;28;20029;-70
2022/08/22 11:42:42;;;;;;;7.43;2.42;;;22.40;99.90;;;;;;5027412;28;20052;-70
2022/08/22 11:45:15;;;;;;;7.22;2.70;;;22.30;99.90;;;;;;5027285;28;20491;-71
2022/08/22 11:47:54;;;;;;;11.35;2.95;;;22.30;99.80;;;;;;5027265;28;20061;-70
2022/08/22 11:50:39;;;;;;;7.32;2.53;;;22.30;99.90;;;;;;5023956;28;20141;-69
2022/08/22 11:53:39;;;;;;;9.02;2.80;;;22.30;99.90;;;;;;5010527;28;20435;-71
2022/08/22 11:56:20;;;;;;;11.48;2.88;;;22.40;99.90;;;;;;5010476;28;20033;-70
2022/08/22 11:59:07;;;;;;;10.20;2.83;;;22.60;99.80;;;;;;5026823;28;20052;-70
2022/08/22 12:01:45;;;;;;;8.55;3.53;;;22.80;99.50;;;;;;5010202;28;20033;-70
2022/08/22 12:04:19;;;;;;;7.45;3.30;;;23.20;99.90;;;;;;5036490;28;20055;-71
2022/08/22 12:06:49;;;;;;;9.32;2.72;;;23.40;99.50;;;;;;5048362;28;20028;-70
2022/08/22 12:09:41;;;;;;;8.20;2.78;;;23.30;99.20;;;;;;5049330;28;20025;-70
2022/08/22 12:12:23;;;;;;;7.47;2.30;;;23.30;98.70;;;;;;5049487;28;20531;-72
2022/08/22 12:14:59;;;;;;;8.02;2.40;;;23.20;99.00;;;;;;5049550;28;20029;-70
2022/08/22 12:17:53;;;;;;;7.20;2.00;;;23.30;99.20;;;;;;5049586;28;20036;-71
2022/08/22 12:20:52;;;;;;;6.78;2.00;;;23.50;98.90;;;;;;5047954;28;20041;-71
2022/08/22 12:23:20;;;;;;;7.07;2.00;;;23.60;98.10;;;;;;5041380;28;20256;-71
2022/08/22 12:25:49;;;;;;;6.63;1.80;;;23.70;98.10;;;;;;5049210;28;20107;-71
2022/08/22 12:28:29;;;;;;;7.55;1.75;;;23.80;98.50;;;;;;5039843;28;20029;-71
2022/08/22 12:31:12;;;;;;;6.30;1.60;;;23.80;97.20;;;;;;5028943;28;20488;-71
2022/08/22 12:33:47;;;;;;;6.40;1.85;;;23.60;96.30;;;;;;5029341;28;20034;-70
2022/08/22 12:36:54;;;;;;;5.72;1.23;;;23.50;97.50;;;;;;5029136;28;20116;-71
2022/08/22 12:39:43;;;;;;;6.40;1.45;;;23.30;97.20;;;;;;5039130;28;20090;-72
2022/08/22 12:42:51;;;;;;;6.60;1.73;;;23.10;98.10;;;;;;5040747;28;20053;-71
2022/08/22 12:45:29;;;;;;;8.80;2.35;;;23.10;98.10;;;;;;4989440;28;20038;-71
2022/08/22 12:48:03;;;;;;;8.20;1.55;;;23.30;98.80;;;;;;5006038;28;20034;-69
2022/08/22 12:50:40;;;;;;;6.93;1.77;;;23.50;97.90;;;;;;5006574;28;20518;-71
2022/08/22 12:53:14;;;;;;;8.48;2.03;;;23.40;97.60;;;;;;5014709;28;20483;-71
2022/08/22 12:55:49;;;;;;;8.23;1.92;;;23.10;97.40;;;;;;5025553;28;20037;-71
2022/08/22 12:58:38;;;;;;;7.38;1.80;;;22.90;97.50;;;;;;5025651;28;20077;-71
2022/08/22 13:01:06;;;;;;;6.68;1.52;;;22.60;98.20;;;;;;5025850;28;20622;-70
2022/08/22 13:03:42;;;;;;;8.18;1.77;;;22.40;98.90;;;;;;5025295;28;20172;-69
2022/08/22 13:06:35;;;;;;;7.07;1.88;;;22.30;99.10;;;;;;5027659;28;20486;-70
2022/08/22 13:09:17;;;;;;;9.85;1.70;;;22.30;99.30;;;;;;5027037;28;20041;-70
2022/08/22 13:11:45;;;;;;;7.63;1.83;;;22.20;99.80;;;;;;5030461;28;20037;-70
2022/08/22 13:14:12;;;;;;;7.20;1.55;;;22.30;99.30;;;;;;5025066;28;20033;-72
2022/08/22 13:16:43;;;;;;;7.55;1.70;;;22.60;99.20;;;;;;5024620;28;20097;-69
2022/08/22 13:19:17;;;;;;;10.52;1.92;;;22.70;98.70;;;;;;5009036;28;20033;-71
2022/08/22 13:21:49;;;;;;;9.88;2.15;;;22.70;98.90;;;;;;5025788;28;20072;-71
2022/08/22 13:24:32;;;;;;;10.40;2.38;;;22.70;98.80;;;;;;5027970;28;20144;-70
2022/08/22 13:27:04;;;;;;;8.82;2.20;;;22.70;98.60;;;;;;5029689;28;20029;-70
2022/08/22 13:29:49;;;;;;;7.57;2.20;;;22.60;98.30;;;;;;5027979;28;20029;-72
2022/08/22 13:32:25;;;;;;;9.02;1.80;;;22.50;98.50;;;;;;5028197;28;20038;-69
2022/08/22 13:34:55;;;;;;;8.13;1.95;;;22.40;98.50;;;;;;5028326;28;20037;-69
2022/08/22 13:37:36;;;;;;;9.73;2.00;;;22.30;99.00;;;;;;5028003;28;20108;-69
2022/08/22 13:40:08;;;;;;;8.93;2.10;;;22.20;98.80;;;;;;5046098;28;20544;-70
2022/08/22 13:42:44;;;;;;;9.85;2.17;;;22.10;99.30;;;;;;5048058;28;20064;-70
2022/08/22 13:45:22;;;;;;;10.05;2.10;;;22.10;99.70;;;;;;5046372;28;20037;-69
2022/08/22 13:47:54;;;;;;;9.65;2.40;;;22.10;99.80;;;;;;5046515;28;20029;-70
2022/08/22 13:50:23;;;;;;;10.85;2.25;;;22.00;99.90;;;;;;5048392;28;20029;-71
2022/08/22 13:52:52;;;;;;;7.43;1.73;;;22.00;99.90;;;;;;5047760;28;20037;-69
2022/08/22 13:55:41;;;;;;;9.63;2.00;;;22.10;99.90;;;;;;5055705;28;20033;-70
2022/08/22 13:58:38;;;;;;;9.73;1.92;;;22.10;99.90;;;;;;5026435;28;20120;-69
2022/08/22 14:01:32;;;;;;;10.27;2.13;;;22.10;99.90;;;;;;5034864;28;20542;-69